sensor_id;sensor_type;location;lat;lon;timestamp;pressure;altitude;pressure_sealevel;temperature;humidity
38054;BME280;23859;50.672;7.164;2023-05-10T00:01:41;47361.34;;;-140.95;86.49
38054;BME280;23859;50.672;7.164;2023-05-10T00:04:07;47375.47;;;-140.95;86.62
38054;BME280;23859;50.672;7.164;2023-05-10T00:06:33;47371.44;;;-140.95;86.83
38054;BME280;23859;50.672;7.164;2023-05-10T00:08:59;47369.41;;;-140.95;86.47
38054;BME280;23859;50.672;7.164;2023-05-10T00:11:25;47349.28;;;-140.95;86.59
38054;BME280;23859;50.672;7.164;2023-05-10T00:13:51;47345.25;;;-140.95;86.57
38054;BME280;23859;50.672;7.164;2023-05-10T00:16:17;47373.44;;;-140.95;86.59
38054;BME280;23859;50.672;7.164;2023-05-10T00:18:43;47381.50;;;-140.95;86.63
38054;BME280;23859;50.672;7.164;2023-05-10T00:21:09;47359.34;;;-140.95;86.74
38054;BME280;23859;50.672;7.164;2023-05-10T00:23:35;47351.28;;;-140.95;86.60
38054;BME280;23859;50.672;7.164;2023-05-10T00:26:01;47345.25;;;-140.95;86.57
38054;BME280;23859;50.672;7.164;2023-05-10T00:28:28;47373.44;;;-140.95;86.45
38054;BME280;23859;50.672;7.164;2023-05-10T00:30:54;47367.41;;;-140.95;86.82
38054;BME280;23859;50.672;7.164;2023-05-10T00:33:21;47367.41;;;-140.95;86.88
38054;BME280;23859;50.672;7.164;2023-05-10T00:35:47;47353.31;;;-140.95;87.02
38054;BME280;23859;50.672;7.164;2023-05-10T00:38:13;47349.28;;;-140.95;86.85
38054;BME280;23859;50.672;7.164;2023-05-10T00:40:40;47367.41;;;-140.95;86.89
38054;BME280;23859;50.672;7.164;2023-05-10T00:43:06;47359.34;;;-140.95;86.82
38054;BME280;23859;50.672;7.164;2023-05-10T00:45:33;47363.38;;;-140.95;87.06
38054;BME280;23859;50.672;7.164;2023-05-10T00:48:04;47365.38;;;-140.95;86.85
38054;BME280;23859;50.672;7.164;2023-05-10T00:50:32;47369.41;;;-140.95;86.91
38054;BME280;23859;50.672;7.164;2023-05-10T00:52:59;47361.34;;;-140.95;86.87
38054;BME280;23859;50.672;7.164;2023-05-10T00:55:26;47361.34;;;-140.95;86.97
38054;BME280;23859;50.672;7.164;2023-05-10T00:57:53;47367.41;;;-140.95;86.95
38054;BME280;23859;50.672;7.164;2023-05-10T01:00:20;47351.28;;;-140.95;87.02
38054;BME280;23859;50.672;7.164;2023-05-10T01:02:46;47363.38;;;-140.95;87.02
38054;BME280;23859;50.672;7.164;2023-05-10T01:05:13;47345.25;;;-140.95;86.84
38054;BME280;23859;50.672;7.164;2023-05-10T01:07:40;47276.72;;;-140.95;87.17
38054;BME280;23859;50.672;7.164;2023-05-10T01:10:07;47377.47;;;-140.95;86.96
38054;BME280;23859;50.672;7.164;2023-05-10T01:12:37;47349.28;;;-140.95;86.75
38054;BME280;23859;50.672;7.164;2023-05-10T01:15:05;47349.28;;;-140.95;86.81
38054;BME280;23859;50.672;7.164;2023-05-10T01:17:33;47357.34;;;-140.95;86.62
38054;BME280;23859;50.672;7.164;2023-05-10T01:20:00;47361.34;;;-140.95;86.89
38054;BME280;23859;50.672;7.164;2023-05-10T01:28:16;47359.34;;;-140.95;86.92
38054;BME280;23859;50.672;7.164;2023-05-10T01:34:01;47353.31;;;-140.95;86.98
38054;BME280;23859;50.672;7.164;2023-05-10T01:36:30;47357.34;;;-140.95;87.04
38054;BME280;23859;50.672;7.164;2023-05-10T01:41:52;47365.38;;;-140.95;86.72
38054;BME280;23859;50.672;7.164;2023-05-10T01:47:20;47359.34;;;-140.95;86.70
38054;BME280;23859;50.672;7.164;2023-05-10T01:49:54;47373.44;;;-140.95;86.42
38054;BME280;23859;50.672;7.164;2023-05-10T01:52:26;47369.41;;;-140.95;86.09
38054;BME280;23859;50.672;7.164;2023-05-10T01:55:01;47381.50;;;-140.95;85.88
38054;BME280;23859;50.672;7.164;2023-05-10T01:57:32;47369.41;;;-140.95;86.12
38054;BME280;23859;50.672;7.164;2023-05-10T01:59:58;47371.44;;;-140.95;85.85
38054;BME280;23859;50.672;7.164;2023-05-10T02:02:27;47381.50;;;-140.95;86.04
38054;BME280;23859;50.672;7.164;2023-05-10T02:04:55;47389.56;;;-140.95;86.07
38054;BME280;23859;50.672;7.164;2023-05-10T02:07:23;47373.44;;;-140.95;85.97
38054;BME280;23859;50.672;7.164;2023-05-10T02:09:50;47369.41;;;-140.95;86.07
38054;BME280;23859;50.672;7.164;2023-05-10T02:12:17;47365.38;;;-140.95;86.30
38054;BME280;23859;50.672;7.164;2023-05-10T02:14:45;47369.41;;;-140.95;85.92
38054;BME280;23859;50.672;7.164;2023-05-10T02:17:13;47369.41;;;-140.95;85.98
38054;BME280;23859;50.672;7.164;2023-05-10T02:19:41;47367.41;;;-140.95;85.66
38054;BME280;23859;50.672;7.164;2023-05-10T02:22:08;47359.34;;;-140.95;85.98
38054;BME280;23859;50.672;7.164;2023-05-10T02:24:36;47361.34;;;-140.95;85.90
38054;BME280;23859;50.672;7.164;2023-05-10T02:27:04;47357.34;;;-140.95;85.60
38054;BME280;23859;50.672;7.164;2023-05-10T02:29:32;47365.38;;;-140.95;85.20
38054;BME280;23859;50.672;7.164;2023-05-10T02:31:59;47361.34;;;-140.95;85.50
38054;BME280;23859;50.672;7.164;2023-05-10T02:34:26;47385.53;;;-140.95;85.71
38054;BME280;23859;50.672;7.164;2023-05-10T02:36:54;47373.44;;;-140.95;85.64
38054;BME280;23859;50.672;7.164;2023-05-10T02:39:22;47367.41;;;-140.95;85.81
38054;BME280;23859;50.672;7.164;2023-05-10T02:41:50;47369.41;;;-140.95;86.24
38054;BME280;23859;50.672;7.164;2023-05-10T02:44:19;47373.44;;;-140.95;86.26
38054;BME280;23859;50.672;7.164;2023-05-10T02:46:46;47385.53;;;-140.95;86.34
38054;BME280;23859;50.672;7.164;2023-05-10T02:49:13;47357.34;;;-140.95;86.43
38054;BME280;23859;50.672;7.164;2023-05-10T02:51:44;47383.53;;;-140.95;86.40
38054;BME280;23859;50.672;7.164;2023-05-10T02:54:18;47373.44;;;-140.95;86.36
38054;BME280;23859;50.672;7.164;2023-05-10T02:56:50;47373.44;;;-140.95;86.38
38054;BME280;23859;50.672;7.164;2023-05-10T02:59:17;47369.41;;;-140.95;86.56
38054;BME280;23859;50.672;7.164;2023-05-10T03:01:43;47377.47;;;-140.95;86.47
38054;BME280;23859;50.672;7.164;2023-05-10T03:04:09;47395.63;;;-140.95;86.38
38054;BME280;23859;50.672;7.164;2023-05-10T03:06:35;47369.41;;;-140.95;86.48
38054;BME280;23859;50.672;7.164;2023-05-10T03:09:02;47381.50;;;-140.95;86.49
38054;BME280;23859;50.672;7.164;2023-05-10T03:19:32;47377.47;;;-140.95;86.64
38054;BME280;23859;50.672;7.164;2023-05-10T03:22:08;47381.50;;;-140.95;86.39
38054;BME280;23859;50.672;7.164;2023-05-10T03:24:37;47389.56;;;-140.95;86.69
38054;BME280;23859;50.672;7.164;2023-05-10T03:27:06;47381.50;;;-140.95;86.69
38054;BME280;23859;50.672;7.164;2023-05-10T03:29:33;47373.44;;;-140.95;86.55
38054;BME280;23859;50.672;7.164;2023-05-10T03:31:59;47379.50;;;-140.95;86.46
38054;BME280;23859;50.672;7.164;2023-05-10T03:34:26;47381.50;;;-140.95;86.61
38054;BME280;23859;50.672;7.164;2023-05-10T03:36:52;47365.38;;;-140.95;86.70
38054;BME280;23859;50.672;7.164;2023-05-10T03:39:18;47373.44;;;-140.95;86.57
38054;BME280;23859;50.672;7.164;2023-05-10T03:41:45;47373.44;;;-140.95;86.59
38054;BME280;23859;50.672;7.164;2023-05-10T03:44:11;47375.47;;;-140.95;86.66
38054;BME280;23859;50.672;7.164;2023-05-10T03:46:37;47385.53;;;-140.95;86.78
38054;BME280;23859;50.672;7.164;2023-05-10T03:49:03;47373.44;;;-140.95;86.64
38054;BME280;23859;50.672;7.164;2023-05-10T03:51:29;47381.50;;;-140.95;86.68
38054;BME280;23859;50.672;7.164;2023-05-10T03:53:56;47377.47;;;-140.95;86.72
38054;BME280;23859;50.672;7.164;2023-05-10T03:56:23;47385.53;;;-140.95;86.75
38054;BME280;23859;50.672;7.164;2023-05-10T03:58:49;47383.53;;;-140.95;86.78
38054;BME280;23859;50.672;7.164;2023-05-10T04:01:15;47381.50;;;-140.95;86.83
38054;BME280;23859;50.672;7.164;2023-05-10T04:03:41;47377.47;;;-140.95;86.98
38054;BME280;23859;50.672;7.164;2023-05-10T04:06:07;47377.47;;;-140.95;86.93
38054;BME280;23859;50.672;7.164;2023-05-10T04:08:34;47383.53;;;-140.95;86.72
38054;BME280;23859;50.672;7.164;2023-05-10T04:11:11;47375.47;;;-140.95;86.89
38054;BME280;23859;50.672;7.164;2023-05-10T04:13:38;47377.47;;;-140.95;86.87
38054;BME280;23859;50.672;7.164;2023-05-10T04:16:05;47367.41;;;-140.95;87.08
38054;BME280;23859;50.672;7.164;2023-05-10T04:18:31;47385.53;;;-140.95;86.93
38054;BME280;23859;50.672;7.164;2023-05-10T04:20:58;47359.34;;;-140.95;86.96
38054;BME280;23859;50.672;7.164;2023-05-10T04:23:24;47373.44;;;-140.95;86.98
38054;BME280;23859;50.672;7.164;2023-05-10T04:25:50;47381.50;;;-140.95;86.91
38054;BME280;23859;50.672;7.164;2023-05-10T04:28:16;47369.41;;;-140.95;86.87
38054;BME280;23859;50.672;7.164;2023-05-10T04:30:42;47365.38;;;-140.95;87.04
38054;BME280;23859;50.672;7.164;2023-05-10T04:33:08;47361.34;;;-140.95;87.01
38054;BME280;23859;50.672;7.164;2023-05-10T04:35:35;47369.41;;;-140.95;86.97
38054;BME280;23859;50.672;7.164;2023-05-10T04:38:01;47361.34;;;-140.95;87.04
38054;BME280;23859;50.672;7.164;2023-05-10T04:40:27;47379.50;;;-140.95;86.85
38054;BME280;23859;50.672;7.164;2023-05-10T04:42:53;47357.34;;;-140.95;87.00
38054;BME280;23859;50.672;7.164;2023-05-10T04:45:19;47361.34;;;-140.95;86.98
38054;BME280;23859;50.672;7.164;2023-05-10T04:47:45;47375.47;;;-140.95;86.79
38054;BME280;23859;50.672;7.164;2023-05-10T04:50:11;47359.34;;;-140.95;86.98
38054;BME280;23859;50.672;7.164;2023-05-10T04:52:37;47357.34;;;-140.95;86.91
38054;BME280;23859;50.672;7.164;2023-05-10T04:55:03;47373.44;;;-140.95;86.83
38054;BME280;23859;50.672;7.164;2023-05-10T04:57:30;47357.34;;;-140.95;87.01
38054;BME280;23859;50.672;7.164;2023-05-10T04:59:56;47369.41;;;-140.95;86.96
38054;BME280;23859;50.672;7.164;2023-05-10T05:02:22;47361.34;;;-140.95;86.81
38054;BME280;23859;50.672;7.164;2023-05-10T05:04:49;47345.25;;;-140.95;86.82
38054;BME280;23859;50.672;7.164;2023-05-10T05:07:15;47365.38;;;-140.95;86.77
38054;BME280;23859;50.672;7.164;2023-05-10T05:09:41;47365.38;;;-140.95;87.00
38054;BME280;23859;50.672;7.164;2023-05-10T05:12:07;47337.19;;;-140.95;86.96
38054;BME280;23859;50.672;7.164;2023-05-10T05:14:33;47369.41;;;-140.95;86.86
38054;BME280;23859;50.672;7.164;2023-05-10T05:16:59;47351.28;;;-140.95;87.10
38054;BME280;23859;50.672;7.164;2023-05-10T05:19:25;47351.28;;;-140.95;86.94
38054;BME280;23859;50.672;7.164;2023-05-10T05:21:51;47357.34;;;-140.95;87.04
38054;BME280;23859;50.672;7.164;2023-05-10T05:24:17;47359.34;;;-140.95;86.81
38054;BME280;23859;50.672;7.164;2023-05-10T05:26:43;47357.34;;;-140.95;87.04
38054;BME280;23859;50.672;7.164;2023-05-10T05:29:09;47345.25;;;-140.95;86.93
38054;BME280;23859;50.672;7.164;2023-05-10T05:31:35;47357.34;;;-140.95;87.02
38054;BME280;23859;50.672;7.164;2023-05-10T05:34:01;47347.25;;;-140.95;86.86
38054;BME280;23859;50.672;7.164;2023-05-10T05:36:27;47363.38;;;-140.95;86.79
38054;BME280;23859;50.672;7.164;2023-05-10T05:38:53;47367.41;;;-140.95;86.56
38054;BME280;23859;50.672;7.164;2023-05-10T05:41:20;47365.38;;;-140.95;86.56
38054;BME280;23859;50.672;7.164;2023-05-10T05:43:47;47365.38;;;-140.95;86.47
38054;BME280;23859;50.672;7.164;2023-05-10T05:46:13;47361.34;;;-140.95;86.65
38054;BME280;23859;50.672;7.164;2023-05-10T05:48:39;47339.19;;;-140.95;86.36
38054;BME280;23859;50.672;7.164;2023-05-10T05:51:05;47341.22;;;-140.95;85.87
38054;BME280;23859;50.672;7.164;2023-05-10T05:53:31;47361.34;;;-140.95;85.87
38054;BME280;23859;50.672;7.164;2023-05-10T05:55:58;47329.13;;;-140.95;85.83
38054;BME280;23859;50.672;7.164;2023-05-10T05:58:25;47353.31;;;-140.95;85.78
38054;BME280;23859;50.672;7.164;2023-05-10T06:00:51;47353.31;;;-140.95;85.80
38054;BME280;23859;50.672;7.164;2023-05-10T06:03:18;47341.22;;;-140.95;85.72
38054;BME280;23859;50.672;7.164;2023-05-10T06:05:44;47319.03;;;-140.95;85.70
38054;BME280;23859;50.672;7.164;2023-05-10T06:08:10;47329.13;;;-140.95;85.71
38054;BME280;23859;50.672;7.164;2023-05-10T06:10:37;47304.94;;;-140.95;85.64
38054;BME280;23859;50.672;7.164;2023-05-10T06:13:03;47294.88;;;-140.95;85.06
38054;BME280;23859;50.672;7.164;2023-05-10T06:15:29;47308.97;;;-140.95;84.28
38054;BME280;23859;50.672;7.164;2023-05-10T06:17:55;47302.91;;;-140.95;83.96
38054;BME280;23859;50.672;7.164;2023-05-10T06:20:22;47321.06;;;-140.95;83.54
38054;BME280;23859;50.672;7.164;2023-05-10T06:22:48;47226.34;;;-140.95;83.63
38054;BME280;23859;50.672;7.164;2023-05-10T06:25:14;47282.78;;;-140.95;83.46
38054;BME280;23859;50.672;7.164;2023-05-10T06:27:40;47300.91;;;-140.95;83.07
38054;BME280;23859;50.672;7.164;2023-05-10T06:30:07;47313.00;;;-140.95;82.21
38054;BME280;23859;50.672;7.164;2023-05-10T06:32:34;47288.81;;;-140.95;82.91
38054;BME280;23859;50.672;7.164;2023-05-10T06:35:00;47300.91;;;-140.95;83.12
38054;BME280;23859;50.672;7.164;2023-05-10T06:37:26;47296.88;;;-140.95;82.94
38054;BME280;23859;50.672;7.164;2023-05-10T06:39:52;47310.97;;;-140.95;82.21
38054;BME280;23859;50.672;7.164;2023-05-10T06:42:18;47308.97;;;-140.95;81.87
38054;BME280;23859;50.672;7.164;2023-05-10T06:44:44;47302.91;;;-140.95;82.56
38054;BME280;23859;50.672;7.164;2023-05-10T06:47:10;47308.97;;;-140.95;82.23
38054;BME280;23859;50.672;7.164;2023-05-10T06:49:36;47304.94;;;-140.95;82.22
38054;BME280;23859;50.672;7.164;2023-05-10T06:52:02;47288.81;;;-140.95;82.58
38054;BME280;23859;50.672;7.164;2023-05-10T06:54:29;47300.91;;;-140.95;82.56
38054;BME280;23859;50.672;7.164;2023-05-10T06:56:55;47300.91;;;-140.95;82.18
38054;BME280;23859;50.672;7.164;2023-05-10T06:59:21;47313.00;;;-140.95;81.91
38054;BME280;23859;50.672;7.164;2023-05-10T07:01:47;47292.84;;;-140.95;82.08
38054;BME280;23859;50.672;7.164;2023-05-10T07:04:13;47296.88;;;-140.95;80.99
38054;BME280;23859;50.672;7.164;2023-05-10T07:06:42;47280.75;;;-140.95;80.90
38054;BME280;23859;50.672;7.164;2023-05-10T07:09:15;47288.81;;;-140.95;80.80
38054;BME280;23859;50.672;7.164;2023-05-10T07:11:41;47286.81;;;-140.95;80.76
38054;BME280;23859;50.672;7.164;2023-05-10T07:14:07;47296.88;;;-140.95;80.28
38054;BME280;23859;50.672;7.164;2023-05-10T07:16:34;47298.91;;;-140.95;80.59
38054;BME280;23859;50.672;7.164;2023-05-10T07:19:00;47298.91;;;-140.95;80.79
38054;BME280;23859;50.672;7.164;2023-05-10T07:21:26;47292.84;;;-140.95;81.47
38054;BME280;23859;50.672;7.164;2023-05-10T07:23:54;47298.91;;;-140.95;82.09
38054;BME280;23859;50.672;7.164;2023-05-10T07:26:20;47321.06;;;-140.95;82.14
38054;BME280;23859;50.672;7.164;2023-05-10T07:28:47;47292.84;;;-140.95;82.34
38054;BME280;23859;50.672;7.164;2023-05-10T07:31:13;47315.00;;;-140.95;82.65
38054;BME280;23859;50.672;7.164;2023-05-10T07:33:39;47304.94;;;-140.95;82.62
38054;BME280;23859;50.672;7.164;2023-05-10T07:36:05;47302.91;;;-140.95;82.08
38054;BME280;23859;50.672;7.164;2023-05-10T07:38:32;47232.41;;;-140.95;82.16
38054;BME280;23859;50.672;7.164;2023-05-10T07:40:58;47302.91;;;-140.95;82.21
38054;BME280;23859;50.672;7.164;2023-05-10T07:43:24;47329.13;;;-140.95;82.25
38054;BME280;23859;50.672;7.164;2023-05-10T07:45:50;47308.97;;;-140.95;81.73
38054;BME280;23859;50.672;7.164;2023-05-10T07:48:16;47315.00;;;-140.95;81.93
38054;BME280;23859;50.672;7.164;2023-05-10T07:50:42;47325.09;;;-140.95;82.71
38054;BME280;23859;50.672;7.164;2023-05-10T07:53:08;47296.88;;;-140.95;82.61
38054;BME280;23859;50.672;7.164;2023-05-10T07:55:34;47302.91;;;-140.95;81.82
38054;BME280;23859;50.672;7.164;2023-05-10T07:58:00;47292.84;;;-140.95;81.01
38054;BME280;23859;50.672;7.164;2023-05-10T08:00:27;47290.84;;;-140.95;80.74
38054;BME280;23859;50.672;7.164;2023-05-10T08:02:53;47280.75;;;-140.95;79.04
38054;BME280;23859;50.672;7.164;2023-05-10T08:05:19;47276.72;;;-140.95;80.08
38054;BME280;23859;50.672;7.164;2023-05-10T08:07:45;47280.75;;;-140.95;80.71
38054;BME280;23859;50.672;7.164;2023-05-10T08:10:11;47254.56;;;-140.95;80.29
38054;BME280;23859;50.672;7.164;2023-05-10T08:12:37;47262.63;;;-140.95;78.91
38054;BME280;23859;50.672;7.164;2023-05-10T08:15:04;47268.66;;;-140.95;77.53
38054;BME280;23859;50.672;7.164;2023-05-10T08:17:30;47260.59;;;-140.95;78.51
38054;BME280;23859;50.672;7.164;2023-05-10T08:19:56;47268.66;;;-140.95;78.37
38054;BME280;23859;50.672;7.164;2023-05-10T08:22:22;47266.66;;;-140.95;78.28
38054;BME280;23859;50.672;7.164;2023-05-10T08:24:48;47272.69;;;-140.95;77.94
38054;BME280;23859;50.672;7.164;2023-05-10T08:27:14;47252.53;;;-140.95;78.29
38054;BME280;23859;50.672;7.164;2023-05-10T08:29:40;47260.59;;;-140.95;78.58
38054;BME280;23859;50.672;7.164;2023-05-10T08:32:06;47248.50;;;-140.95;78.49
38054;BME280;23859;50.672;7.164;2023-05-10T08:34:33;47244.50;;;-140.95;78.45
38054;BME280;23859;50.672;7.164;2023-05-10T08:36:59;47240.47;;;-140.95;77.92
38054;BME280;23859;50.672;7.164;2023-05-10T08:39:25;47220.31;;;-140.95;77.04
38054;BME280;23859;50.672;7.164;2023-05-10T08:41:51;47220.31;;;-140.95;76.11
38054;BME280;23859;50.672;7.164;2023-05-10T08:44:20;47228.38;;;-140.95;74.44
38054;BME280;23859;50.672;7.164;2023-05-10T08:46:46;47224.34;;;-140.95;73.13
38054;BME280;23859;50.672;7.164;2023-05-10T08:49:20;47635.41;;;-140.95;75.35
38054;BME280;23859;50.672;7.164;2023-05-10T08:51:52;47252.53;;;-140.95;75.72
38054;BME280;23859;50.672;7.164;2023-05-10T08:54:21;47260.59;;;-140.95;76.32
38054;BME280;23859;50.672;7.164;2023-05-10T08:56:48;47276.72;;;-140.95;77.88
38054;BME280;23859;50.672;7.164;2023-05-10T08:59:14;47294.88;;;-140.95;79.08
38054;BME280;23859;50.672;7.164;2023-05-10T09:01:43;47284.78;;;-140.95;78.59
38054;BME280;23859;50.672;7.164;2023-05-10T09:04:10;47294.88;;;-140.95;79.22
38054;BME280;23859;50.672;7.164;2023-05-10T09:06:37;47288.81;;;-140.95;79.20
38054;BME280;23859;50.672;7.164;2023-05-10T09:09:04;47284.78;;;-140.95;78.92
38054;BME280;23859;50.672;7.164;2023-05-10T09:11:30;47323.06;;;-140.95;78.25
38054;BME280;23859;50.672;7.164;2023-05-10T09:13:57;47349.28;;;-140.95;80.37
38054;BME280;23859;50.672;7.164;2023-05-10T09:16:23;47341.22;;;-140.95;81.28
38054;BME280;23859;50.672;7.164;2023-05-10T09:18:50;47355.31;;;-140.95;80.91
38054;BME280;23859;50.672;7.164;2023-05-10T09:21:16;47325.09;;;-140.95;80.97
38054;BME280;23859;50.672;7.164;2023-05-10T09:23:48;47367.41;;;-140.95;80.40
38054;BME280;23859;50.672;7.164;2023-05-10T09:26:15;47353.31;;;-140.95;81.57
38054;BME280;23859;50.672;7.164;2023-05-10T09:28:54;47349.28;;;-140.95;81.48
38054;BME280;23859;50.672;7.164;2023-05-10T09:31:21;47325.09;;;-140.95;82.15
38054;BME280;23859;50.672;7.164;2023-05-10T09:33:48;47329.13;;;-140.95;81.90
38054;BME280;23859;50.672;7.164;2023-05-10T09:36:15;47302.91;;;-140.95;81.84
38054;BME280;23859;50.672;7.164;2023-05-10T09:38:49;47321.06;;;-140.95;80.91
38054;BME280;23859;50.672;7.164;2023-05-10T09:41:21;47319.03;;;-140.95;80.80
38054;BME280;23859;50.672;7.164;2023-05-10T09:43:47;47317.03;;;-140.95;80.99
38054;BME280;23859;50.672;7.164;2023-05-10T09:46:14;47310.97;;;-140.95;80.85
38054;BME280;23859;50.672;7.164;2023-05-10T09:48:45;47304.94;;;-140.95;82.05
38054;BME280;23859;50.672;7.164;2023-05-10T09:51:19;47306.94;;;-140.95;81.65
38054;BME280;23859;50.672;7.164;2023-05-10T09:53:46;47296.88;;;-140.95;81.78
38054;BME280;23859;50.672;7.164;2023-05-10T09:56:12;47308.97;;;-140.95;80.08
38054;BME280;23859;50.672;7.164;2023-05-10T09:58:38;47298.91;;;-140.95;79.06
38054;BME280;23859;50.672;7.164;2023-05-10T10:01:04;47290.84;;;-140.95;80.04
38054;BME280;23859;50.672;7.164;2023-05-10T10:03:42;47274.72;;;-140.95;79.82
38054;BME280;23859;50.672;7.164;2023-05-10T10:06:09;47272.69;;;-140.95;79.41
38054;BME280;23859;50.672;7.164;2023-05-10T10:08:35;47248.50;;;-140.95;78.94
38054;BME280;23859;50.672;7.164;2023-05-10T10:11:01;47272.69;;;-140.95;76.45
38054;BME280;23859;50.672;7.164;2023-05-10T10:13:28;47244.50;;;-140.95;74.08
38054;BME280;23859;50.672;7.164;2023-05-10T10:15:54;47228.38;;;-140.95;75.79
38054;BME280;23859;50.672;7.164;2023-05-10T10:18:21;47244.50;;;-140.95;71.69
38054;BME280;23859;50.672;7.164;2023-05-10T10:20:53;47232.41;;;-140.95;75.35
38054;BME280;23859;50.672;7.164;2023-05-10T10:23:20;47240.47;;;-140.95;75.29
38054;BME280;23859;50.672;7.164;2023-05-10T10:25:46;47224.34;;;-140.95;74.73
38054;BME280;23859;50.672;7.164;2023-05-10T10:31:26;47238.44;;;-140.95;73.79
38054;BME280;23859;50.672;7.164;2023-05-10T10:34:00;47228.38;;;-140.95;74.06
38054;BME280;23859;50.672;7.164;2023-05-10T10:36:29;47216.28;;;-140.95;74.58
38054;BME280;23859;50.672;7.164;2023-05-10T10:39:00;47220.31;;;-140.95;73.79
38054;BME280;23859;50.672;7.164;2023-05-10T10:41:49;47212.25;;;-140.95;74.05
38054;BME280;23859;50.672;7.164;2023-05-10T10:49:27;47214.25;;;-140.95;74.87
38054;BME280;23859;50.672;7.164;2023-05-10T10:52:13;47204.19;;;-140.95;72.27
38054;BME280;23859;50.672;7.164;2023-05-10T10:54:41;47210.22;;;-140.95;70.57
38054;BME280;23859;50.672;7.164;2023-05-10T10:57:12;47167.91;;;-140.95;70.58
38054;BME280;23859;50.672;7.164;2023-05-10T10:59:42;47167.91;;;-140.95;69.72
38054;BME280;23859;50.672;7.164;2023-05-10T11:02:34;47165.91;;;-140.95;67.30
38054;BME280;23859;50.672;7.164;2023-05-10T11:05:22;47171.94;;;-140.95;67.31
38054;BME280;23859;50.672;7.164;2023-05-10T11:07:57;47175.97;;;-140.95;69.44
38054;BME280;23859;50.672;7.164;2023-05-10T11:10:24;47208.22;;;-140.95;69.77
38054;BME280;23859;50.672;7.164;2023-05-10T11:12:52;47192.09;;;-140.95;71.40
38054;BME280;23859;50.672;7.164;2023-05-10T11:15:20;47198.13;;;-140.95;69.80
38054;BME280;23859;50.672;7.164;2023-05-10T11:17:53;47204.19;;;-140.95;71.05
38054;BME280;23859;50.672;7.164;2023-05-10T11:20:20;47194.13;;;-140.95;70.99
38054;BME280;23859;50.672;7.164;2023-05-10T11:22:53;47224.34;;;-140.95;71.06
38054;BME280;23859;50.672;7.164;2023-05-10T11:25:22;47216.28;;;-140.95;72.19
38054;BME280;23859;50.672;7.164;2023-05-10T11:27:52;47206.19;;;-140.95;71.91
38054;BME280;23859;50.672;7.164;2023-05-10T11:30:18;47198.13;;;-140.95;70.96
38054;BME280;23859;50.672;7.164;2023-05-10T11:32:45;47180.00;;;-140.95;66.54
38054;BME280;23859;50.672;7.164;2023-05-10T11:35:12;47159.84;;;-140.95;66.48
38054;BME280;23859;50.672;7.164;2023-05-10T11:37:41;47184.03;;;-140.95;60.76
38054;BME280;23859;50.672;7.164;2023-05-10T11:40:09;47163.88;;;-140.95;62.36
38054;BME280;23859;50.672;7.164;2023-05-10T11:42:39;47135.69;;;-140.95;64.05
38054;BME280;23859;50.672;7.164;2023-05-10T11:45:06;47137.69;;;-140.95;64.76
38054;BME280;23859;50.672;7.164;2023-05-10T11:47:32;47139.72;;;-140.95;63.38
38054;BME280;23859;50.672;7.164;2023-05-10T11:50:01;47131.66;;;-140.95;63.83
38054;BME280;23859;50.672;7.164;2023-05-10T11:52:27;47117.53;;;-140.95;61.53
38054;BME280;23859;50.672;7.164;2023-05-10T11:54:54;47123.59;;;-140.95;61.76
38054;BME280;23859;50.672;7.164;2023-05-10T11:57:21;47129.63;;;-140.95;63.69
38054;BME280;23859;50.672;7.164;2023-05-10T11:59:54;47139.72;;;-140.95;62.60
38054;BME280;23859;50.672;7.164;2023-05-10T12:02:22;47151.78;;;-140.95;63.42
38054;BME280;23859;50.672;7.164;2023-05-10T12:04:48;47163.88;;;-140.95;63.54
38054;BME280;23859;50.672;7.164;2023-05-10T12:07:15;47192.09;;;-140.95;63.78
38054;BME280;23859;50.672;7.164;2023-05-10T12:09:43;47180.00;;;-140.95;63.68
38054;BME280;23859;50.672;7.164;2023-05-10T12:12:15;47210.22;;;-140.95;64.21
38054;BME280;23859;50.672;7.164;2023-05-10T12:14:42;47220.31;;;-140.95;63.52
38054;BME280;23859;50.672;7.164;2023-05-10T12:17:12;47232.41;;;-140.95;67.49
38054;BME280;23859;50.672;7.164;2023-05-10T12:19:39;47228.38;;;-140.95;63.36
38054;BME280;23859;50.672;7.164;2023-05-10T12:22:05;47234.41;;;-140.95;65.16
38054;BME280;23859;50.672;7.164;2023-05-10T12:24:34;47240.47;;;-140.95;67.28
38054;BME280;23859;50.672;7.164;2023-05-10T12:27:05;47240.47;;;-140.95;68.49
38054;BME280;23859;50.672;7.164;2023-05-10T12:29:33;47212.25;;;-140.95;67.20
38054;BME280;23859;50.672;7.164;2023-05-10T12:32:01;47214.25;;;-140.95;66.98
38054;BME280;23859;50.672;7.164;2023-05-10T12:34:32;47230.38;;;-140.95;67.27
38054;BME280;23859;50.672;7.164;2023-05-10T12:36:59;47224.34;;;-140.95;68.27
38054;BME280;23859;50.672;7.164;2023-05-10T12:39:26;47135.69;;;-140.95;69.29
38054;BME280;23859;50.672;7.164;2023-05-10T12:41:52;47262.63;;;-140.95;70.23
38054;BME280;23859;50.672;7.164;2023-05-10T12:44:18;47246.50;;;-140.95;70.06
38054;BME280;23859;50.672;7.164;2023-05-10T12:46:45;47248.50;;;-140.95;70.67
38054;BME280;23859;50.672;7.164;2023-05-10T12:49:11;47260.59;;;-140.95;71.51
38054;BME280;23859;50.672;7.164;2023-05-10T12:51:37;47236.44;;;-140.95;71.97
38054;BME280;23859;50.672;7.164;2023-05-10T12:54:03;47252.53;;;-140.95;70.02
38054;BME280;23859;50.672;7.164;2023-05-10T12:56:29;47240.47;;;-140.95;71.67
38054;BME280;23859;50.672;7.164;2023-05-10T12:58:55;47226.34;;;-140.95;67.31
38054;BME280;23859;50.672;7.164;2023-05-10T13:01:21;47216.28;;;-140.95;63.99
38054;BME280;23859;50.672;7.164;2023-05-10T13:03:47;47194.13;;;-140.95;68.75
38054;BME280;23859;50.672;7.164;2023-05-10T13:06:14;47192.09;;;-140.95;65.73
38054;BME280;23859;50.672;7.164;2023-05-10T13:08:40;47218.28;;;-140.95;61.95
38054;BME280;23859;50.672;7.164;2023-05-10T13:11:06;47208.22;;;-140.95;63.55
38054;BME280;23859;50.672;7.164;2023-05-10T13:13:33;47210.22;;;-140.95;63.55